»·PEaware :: DCM180 KCOS-KAMA

DCM180 :: KCOS-KAMA

FLIGHT INFORMATION

Flight Status: Arrived
Operator:
DotCom
More flights by this operator :: More flights under this callsign
Pilot: Etienne B. (28927)
Aircraft: AIRBUS A320
(A320)
More flights by this aircraft type
Origin: KCOS City Of Colorado Springs Mun
United States
Destination: KAMA Amarillo Intl
United States
More flights between these airports :: More routes between these airports
Route: +COS6 BRK PUB J17 PNH
File this flight plan on PilotEdge
Remarks: RMK / SIMBRIEF
Altitude:
(Current/Filed)
33,000ft
Speed:
(Current/Filed)
436kts
Departed: 04-May-20 05:52 PM
Arrived: 04-May-20 06:44 PM
Distance/Time
Traveled:
259nm/0:52
Distance/Time
To Go:
Arrived

Flight Plot

Page will automatically refresh every two minutes.

Flight plan parsing failed; only flown route is shown


Map Options




Map Legend


Flown Route
Filed Route
Departure Airport
Arrival Airport
Navaid (VOR, NDB)
Fix

Horizontal Profiles

Position Reports

Time Latitude Longitude Heading Altitude Ground
Speed
04-May-20 17:10 38.799335 -104.700222 269 6122ft 0kts
04-May-20 17:11 38.799335 -104.700222 269 6122ft 0kts
04-May-20 17:12 38.799335 -104.700222 269 6122ft 0kts
04-May-20 17:13 38.799335 -104.700222 269 6122ft 0kts
04-May-20 17:14 38.799335 -104.700222 269 6122ft 0kts
04-May-20 17:15 38.799335 -104.700222 269 6122ft 0kts
04-May-20 17:16 38.799335 -104.700222 269 6122ft 0kts
04-May-20 17:17 38.799335 -104.700222 269 6122ft 0kts
04-May-20 17:18 38.799335 -104.700222 269 6122ft 0kts
04-May-20 17:19 38.799335 -104.700221 269 6122ft 0kts
04-May-20 17:20 38.799335 -104.700221 269 6122ft 0kts
04-May-20 17:21 38.799335 -104.700221 270 6122ft 0kts
04-May-20 17:22 38.799335 -104.700221 269 6122ft 0kts
04-May-20 17:23 38.799335 -104.700221 269 6122ft 0kts
04-May-20 17:24 38.799335 -104.700221 269 6122ft 0kts
04-May-20 17:25 38.799335 -104.700221 270 6122ft 0kts
04-May-20 17:26 38.799335 -104.700221 269 6122ft 0kts
04-May-20 17:27 38.799335 -104.700221 270 6122ft 0kts
04-May-20 17:28 38.799264 -104.699766 298 6124ft 2kts
04-May-20 17:29 38.798817 -104.699341 350 6126ft 2kts
04-May-20 17:30 38.798669 -104.699327 0 6127ft 0kts
04-May-20 17:31 38.798680 -104.699327 0 6127ft 0kts
04-May-20 17:32 38.799642 -104.699313 0 6125ft 3kts
04-May-20 17:33 38.799716 -104.699311 0 6125ft 0kts
04-May-20 17:34 38.799716 -104.699311 0 6125ft 0kts
04-May-20 17:35 38.799716 -104.699311 0 6125ft 0kts
04-May-20 17:36 38.799888 -104.699234 58 6126ft 1kts
04-May-20 17:37 38.801092 -104.697124 28 6133ft 13kts
04-May-20 17:38 38.802747 -104.696536 79 6135ft 1kts
04-May-20 17:39 38.802820 -104.694187 89 6145ft 12kts
04-May-20 17:40 38.802794 -104.688535 104 6160ft 14kts
04-May-20 17:41 38.799907 -104.687843 178 6144ft 16kts
04-May-20 17:42 38.794119 -104.687853 179 6126ft 18kts
04-May-20 17:43 38.788914 -104.687855 180 6125ft 26kts
04-May-20 17:44 38.780691 -104.687891 179 6097ft 18kts
04-May-20 17:45 38.779154 -104.687306 87 6094ft 0kts
04-May-20 17:46 38.779154 -104.687306 87 6094ft 0kts
04-May-20 17:48 38.779154 -104.687306 87 6094ft 0kts
04-May-20 17:49 38.779154 -104.687306 87 6094ft 0kts
04-May-20 17:50 38.779156 -104.687245 87 6094ft 0kts
04-May-20 17:51 38.779387 -104.685891 36 6097ft 10kts
04-May-20 17:52 38.804026 -104.685635 3 6335ft 173kts
04-May-20 17:53 38.855014 -104.690162 359 8638ft 195kts
04-May-20 17:54 38.914799 -104.693745 14 10263ft 252kts
04-May-20 17:55 38.945577 -104.617853 105 12419ft 300kts
04-May-20 17:56 38.872960 -104.559848 167 14681ft 344kts
04-May-20 17:57 38.776195 -104.537934 166 16025ft 359kts
04-May-20 17:58 38.677613 -104.515561 166 15998ft 360kts
04-May-20 17:59 38.578931 -104.493291 166 16229ft 362kts
04-May-20 18:00 38.478986 -104.470819 167 18415ft 364kts
04-May-20 18:01 38.379625 -104.448528 168 20401ft 365kts
04-May-20 18:02 38.281162 -104.418678 151 22126ft 370kts
04-May-20 18:03 38.193090 -104.347248 151 23520ft 379kts
04-May-20 18:04 38.103528 -104.274603 152 24744ft 387kts
04-May-20 18:05 38.011834 -104.200502 153 25788ft 397kts
04-May-20 18:05 37.933257 -104.137178 154 26588ft 405kts
04-May-20 18:06 37.836882 -104.059737 155 27456ft 417kts
04-May-20 18:08 37.721233 -103.967111 156 28430ft 429kts
04-May-20 18:08 37.636199 -103.899233 156 29046ft 438kts
04-May-20 18:09 37.532246 -103.816504 156 29725ft 448kts
04-May-20 18:10 37.425773 -103.732040 157 30415ft 456kts
04-May-20 18:11 37.317833 -103.646716 157 31155ft 462kts
04-May-20 18:12 37.211108 -103.553907 151 31850ft 476kts
04-May-20 18:13 37.105695 -103.451841 149 32356ft 487kts
04-May-20 18:14 36.996762 -103.346711 149 32970ft 496kts
04-May-20 18:15 36.890406 -103.244303 150 33047ft 465kts
04-May-20 18:16 36.788725 -103.146999 149 33033ft 460kts
04-May-20 18:17 36.688067 -103.050905 149 32187ft 451kts
04-May-20 18:18 36.590830 -102.958358 149 31259ft 430kts
04-May-20 18:19 36.497068 -102.869480 149 29854ft 420kts
04-May-20 18:20 36.406146 -102.783470 148 27993ft 395kts
04-May-20 18:21 36.322527 -102.704641 148 26061ft 368kts
04-May-20 18:22 36.244548 -102.631334 147 23811ft 342kts
04-May-20 18:23 36.169735 -102.561248 145 21028ft 339kts
04-May-20 18:24 36.094710 -102.491105 143 17534ft 341kts
04-May-20 18:25 36.019669 -102.421097 142 14035ft 340kts
04-May-20 18:26 35.945343 -102.351910 142 11067ft 323kts
04-May-20 18:27 35.877784 -102.289141 142 10055ft 292kts
04-May-20 18:28 35.812873 -102.229010 142 10059ft 292kts
04-May-20 18:29 35.747806 -102.168847 142 10058ft 292kts
04-May-20 18:30 35.682741 -102.108805 142 10058ft 292kts
04-May-20 18:31 35.615218 -102.054155 156 9860ft 291kts
04-May-20 18:32 35.543011 -102.019317 157 8638ft 260kts
04-May-20 18:33 35.478728 -101.989560 157 7365ft 244kts
04-May-20 18:34 35.414135 -101.960873 159 6076ft 251kts
04-May-20 18:35 35.343191 -101.960511 183 5001ft 253kts
04-May-20 18:36 35.288097 -101.951760 143 4989ft 170kts
04-May-20 18:37 35.250877 -101.917309 130 5036ft 166kts
04-May-20 18:38 35.218714 -101.877157 127 5078ft 164kts
04-May-20 18:39 35.188507 -101.835052 123 5114ft 166kts
04-May-20 18:40 35.172211 -101.790142 80 4531ft 133kts
04-May-20 18:41 35.189655 -101.751714 44 4096ft 137kts
04-May-20 18:42 35.216121 -101.718888 45 3615ft 69kts
04-May-20 18:43 35.218593 -101.710506 49 3615ft 12kts
04-May-20 18:44 35.220822 -101.707625 66 3615ft 7kts
04-May-20 18:45 35.219703 -101.706928 169 3615ft 13kts

Navigation Log

Ident Type
Flight plan parsing failed, navigation log unavailable